Time;durP1;ratioP1;P1;durP2;ratioP2;P2;SDS_P1;SDS_P2;PMS_P1;PMS_P2;Temp;Humidity;BMP_temperature;BMP_pressure;BME280_temperature;BME280_humidity;BME280_pressure;Samples;Min_cycle;Max_cycle;Signal;HPM_P1;HPM_P2
2021/09/19 00:01:17;;;;;;;3.83;3.10;;;;;;;;;;5012425;28;20454;-84
2021/09/19 00:03:44;;;;;;;4.40;3.00;;;;;;;;;;5012302;28;20443;-82
2021/09/19 00:06:11;;;;;;;3.40;2.70;;;;;;;;;;5017507;28;20958;-83
2021/09/19 00:08:38;;;;;;;3.33;3.03;;;;;;;;;;5013498;28;20792;-83
2021/09/19 00:11:06;;;;;;;3.80;3.43;;;;;;;;;;5014566;28;20467;-83
2021/09/19 00:13:33;;;;;;;4.13;3.37;;;;;;;;;;4997213;28;20462;-82
2021/09/19 00:16:01;;;;;;;4.30;3.50;;;;;;;;;;5013772;28;20457;-84
2021/09/19 00:18:28;;;;;;;3.20;2.87;;;;;;;;;;5008073;28;20449;-82
2021/09/19 00:20:56;;;;;;;3.90;3.50;;;;;;;;;;5009784;28;20450;-83
2021/09/19 00:23:23;;;;;;;3.33;3.03;;;;;;;;;;5012117;28;20496;-83
2021/09/19 00:25:50;;;;;;;2.80;2.60;;;;;;;;;;5012176;28;20802;-84
2021/09/19 00:28:17;;;;;;;3.17;2.87;;;;;;;;;;5012193;28;20446;-84
2021/09/19 00:30:44;;;;;;;3.37;3.07;;;;;;;;;;5012812;28;20570;-83
2021/09/19 00:33:13;;;;;;;3.23;2.93;;;;;;;;;;5014348;28;20446;-84
2021/09/19 00:35:40;;;;;;;3.43;3.13;;;;;;;;;;5014295;28;20453;-83
2021/09/19 00:38:07;;;;;;;4.20;3.20;;;;;;;;;;5012890;28;20439;-83
2021/09/19 00:40:34;;;;;;;3.80;3.10;;;;;;;;;;5007481;28;20808;-83
2021/09/19 00:43:01;;;;;;;3.87;3.37;;;;;;;;;;5009290;28;20505;-82
2021/09/19 00:45:29;;;;;;;3.80;3.50;;;;;;;;;;5011655;28;20809;-82
2021/09/19 00:47:56;;;;;;;4.17;3.67;;;;;;;;;;5011885;28;20458;-82
2021/09/19 00:50:25;;;;;;;6.40;3.63;;;;;;;;;;5011952;28;20481;-82
2021/09/19 00:52:53;;;;;;;4.27;3.87;;;;;;;;;;4995605;28;20473;-82
2021/09/19 00:55:21;;;;;;;4.47;3.77;;;;;;;;;;4997228;28;20486;-82
2021/09/19 00:57:49;;;;;;;4.40;3.67;;;;;;;;;;5007507;28;20448;-82
2021/09/19 01:00:18;;;;;;;4.90;4.20;;;;;;;;;;5007827;28;20452;-82
2021/09/19 01:02:45;;;;;;;3.77;3.47;;;;;;;;;;5010524;28;20493;-83
2021/09/19 01:05:13;;;;;;;3.63;3.33;;;;;;;;;;5011677;28;20450;-82
2021/09/19 01:07:43;;;;;;;3.43;3.00;;;;;;;;;;5011846;28;20447;-83
2021/09/19 01:10:11;;;;;;;4.00;3.37;;;;;;;;;;5012565;28;20482;-82
2021/09/19 01:12:40;;;;;;;3.60;3.30;;;;;;;;;;5013592;28;20452;-83
2021/09/19 01:15:07;;;;;;;3.50;3.20;;;;;;;;;;5014069;28;20442;-83
2021/09/19 01:17:35;;;;;;;3.67;3.37;;;;;;;;;;5012277;28;20523;-83
2021/09/19 01:20:02;;;;;;;3.40;3.10;;;;;;;;;;5007257;28;20808;-82
2021/09/19 01:22:32;;;;;;;3.00;2.70;;;;;;;;;;5009147;28;20485;-83
2021/09/19 01:25:02;;;;;;;2.90;2.70;;;;;;;;;;5011370;28;20450;-83
2021/09/19 01:27:32;;;;;;;5.73;2.77;;;;;;;;;;5010791;28;20457;-83
2021/09/19 01:29:59;;;;;;;3.47;2.63;;;;;;;;;;5011666;28;20972;-82
2021/09/19 01:32:26;;;;;;;2.80;2.60;;;;;;;;;;5012592;28;20473;-83
2021/09/19 01:34:54;;;;;;;2.60;2.40;;;;;;;;;;5013802;28;20940;-83
2021/09/19 01:37:21;;;;;;;2.73;2.47;;;;;;;;;;5013628;28;20966;-83
2021/09/19 01:39:48;;;;;;;2.37;2.00;;;;;;;;;;5011992;28;22101;-83
2021/09/19 01:42:17;;;;;;;2.90;2.40;;;;;;;;;;5007460;28;20488;-83
2021/09/19 01:44:46;;;;;;;2.40;2.20;;;;;;;;;;5010443;28;20454;-83
2021/09/19 01:47:13;;;;;;;2.33;2.13;;;;;;;;;;5011495;28;20461;-82
2021/09/19 01:49:45;;;;;;;2.40;2.07;;;;;;;;;;5011404;28;21089;-83
2021/09/19 01:52:12;;;;;;;3.43;2.60;;;;;;;;;;5015260;28;20446;-83
2021/09/19 01:54:39;;;;;;;1.80;1.70;;;;;;;;;;5016020;28;20445;-82
2021/09/19 01:57:06;;;;;;;2.40;2.00;;;;;;;;;;5017295;28;20439;-82
2021/09/19 01:59:35;;;;;;;2.43;2.23;;;;;;;;;;5017008;28;20471;-82
2021/09/19 02:02:02;;;;;;;2.63;2.00;;;;;;;;;;5014417;28;20452;-83
2021/09/19 02:04:31;;;;;;;2.20;2.00;;;;;;;;;;5010580;28;20444;-83
2021/09/19 02:06:58;;;;;;;2.43;2.20;;;;;;;;;;5013431;28;20447;-82
2021/09/19 02:09:26;;;;;;;2.30;2.10;;;;;;;;;;5014496;28;20515;-82
2021/09/19 02:11:53;;;;;;;2.43;2.13;;;;;;;;;;5015075;28;20443;-83
2021/09/19 02:14:20;;;;;;;2.27;2.00;;;;;;;;;;5014985;28;20462;-82
2021/09/19 02:16:48;;;;;;;2.20;2.00;;;;;;;;;;5015755;28;20470;-83
2021/09/19 02:19:15;;;;;;;4.13;2.10;;;;;;;;;;5016506;28;20822;-82
2021/09/19 02:21:43;;;;;;;1.97;1.77;;;;;;;;;;5016761;28;20448;-82
2021/09/19 02:24:10;;;;;;;2.40;2.20;;;;;;;;;;5014174;28;20971;-83
2021/09/19 02:26:37;;;;;;;5.57;2.27;;;;;;;;;;5010553;28;20783;-82
2021/09/19 02:29:05;;;;;;;2.33;2.13;;;;;;;;;;5013087;28;20464;-82
2021/09/19 02:31:32;;;;;;;2.43;2.13;;;;;;;;;;5014005;28;20466;-83
2021/09/19 02:34:01;;;;;;;2.17;1.97;;;;;;;;;;4997124;28;20451;-83
2021/09/19 02:36:28;;;;;;;2.03;1.83;;;;;;;;;;5014687;28;20447;-83
2021/09/19 02:38:55;;;;;;;3.03;1.93;;;;;;;;;;5015445;28;20457;-83
2021/09/19 02:41:25;;;;;;;2.40;2.20;;;;;;;;;;5016309;28;20450;-83
2021/09/19 02:43:52;;;;;;;2.00;1.80;;;;;;;;;;4999398;28;20489;-82
2021/09/19 02:46:20;;;;;;;2.20;2.00;;;;;;;;;;5013002;28;20423;-83
2021/09/19 02:48:47;;;;;;;2.20;2.00;;;;;;;;;;5009882;28;20436;-82
2021/09/19 02:51:15;;;;;;;2.57;1.90;;;;;;;;;;5012889;28;20443;-82
2021/09/19 02:53:42;;;;;;;2.33;2.13;;;;;;;;;;5013907;28;20973;-82
2021/09/19 02:56:09;;;;;;;2.13;1.60;;;;;;;;;;5013750;28;20482;-82
2021/09/19 02:58:37;;;;;;;1.80;1.70;;;;;;;;;;5014010;28;20447;-83
2021/09/19 03:01:04;;;;;;;2.20;2.00;;;;;;;;;;5014733;28;20484;-82
2021/09/19 03:03:31;;;;;;;3.50;1.77;;;;;;;;;;5015835;28;20497;-84
2021/09/19 03:05:59;;;;;;;4.57;2.10;;;;;;;;;;5015959;28;20445;-82
2021/09/19 03:08:27;;;;;;;2.63;2.00;;;;;;;;;;5012652;28;20447;-83
2021/09/19 03:10:54;;;;;;;1.83;1.73;;;;;;;;;;5008905;28;20457;-83
2021/09/19 03:13:21;;;;;;;1.80;1.70;;;;;;;;;;5012421;28;20435;-83
2021/09/19 03:15:48;;;;;;;3.60;1.90;;;;;;;;;;5013434;28;20816;-83
2021/09/19 03:18:16;;;;;;;2.13;2.03;;;;;;;;;;5013562;28;20473;-83
2021/09/19 03:20:43;;;;;;;3.17;1.87;;;;;;;;;;5013832;28;20463;-82
2021/09/19 03:23:10;;;;;;;4.20;2.00;;;;;;;;;;5014574;28;20489;-83
2021/09/19 03:25:38;;;;;;;2.30;1.90;;;;;;;;;;5015386;28;20904;-82
2021/09/19 03:28:06;;;;;;;2.30;2.10;;;;;;;;;;5015491;28;20439;-82
2021/09/19 03:30:33;;;;;;;2.80;1.97;;;;;;;;;;5012111;28;20455;-82
2021/09/19 03:33:00;;;;;;;1.93;1.80;;;;;;;;;;5008902;28;20444;-83
2021/09/19 03:35:27;;;;;;;2.23;1.90;;;;;;;;;;5012217;28;20443;-83
2021/09/19 03:37:54;;;;;;;1.70;1.60;;;;;;;;;;5012780;28;20447;-83
2021/09/19 03:40:22;;;;;;;1.70;1.60;;;;;;;;;;5012735;28;20474;-83
2021/09/19 03:42:51;;;;;;;2.10;1.90;;;;;;;;;;5013354;28;20482;-83
2021/09/19 03:45:24;;;;;;;2.47;2.10;;;;;;;;;;5014273;28;20468;-83
2021/09/19 03:47:51;;;;;;;2.90;1.60;;;;;;;;;;4998342;28;20534;-82
2021/09/19 03:50:18;;;;;;;2.97;1.93;;;;;;;;;;5014872;28;20468;-82
2021/09/19 03:52:46;;;;;;;2.10;1.90;;;;;;;;;;5011306;28;20438;-83
2021/09/19 03:55:13;;;;;;;1.93;1.83;;;;;;;;;;5008378;28;20478;-82
2021/09/19 03:57:40;;;;;;;1.60;1.50;;;;;;;;;;5011695;28;20809;-83
2021/09/19 04:00:09;;;;;;;1.80;1.70;;;;;;;;;;5012420;28;20481;-82
2021/09/19 04:02:36;;;;;;;1.97;1.70;;;;;;;;;;5013184;28;20451;-82
2021/09/19 04:05:04;;;;;;;2.10;1.90;;;;;;;;;;5012908;28;20443;-83
2021/09/19 04:07:31;;;;;;;1.70;1.60;;;;;;;;;;5014157;28;20466;-83
2021/09/19 04:09:58;;;;;;;2.33;1.90;;;;;;;;;;5014652;28;20468;-82
2021/09/19 04:12:25;;;;;;;2.20;2.00;;;;;;;;;;5014290;28;20442;-82
2021/09/19 04:14:52;;;;;;;1.60;1.50;;;;;;;;;;5010732;28;20451;-83
2021/09/19 04:17:21;;;;;;;3.30;2.23;;;;;;;;;;5008378;28;20869;-83
2021/09/19 04:19:48;;;;;;;1.90;1.70;;;;;;;;;;5011320;28;20462;-82
2021/09/19 04:22:15;;;;;;;2.30;2.10;;;;;;;;;;5012290;28;20530;-84
2021/09/19 04:24:45;;;;;;;3.03;1.90;;;;;;;;;;5012376;28;20490;-83
2021/09/19 04:27:12;;;;;;;2.57;1.87;;;;;;;;;;5012338;28;20439;-82
2021/09/19 04:29:39;;;;;;;2.40;2.20;;;;;;;;;;5014163;28;20471;-82
2021/09/19 04:32:07;;;;;;;2.20;2.00;;;;;;;;;;5014322;28;20446;-82
2021/09/19 04:34:35;;;;;;;2.23;2.03;;;;;;;;;;5014279;28;20451;-82
2021/09/19 04:37:02;;;;;;;4.00;2.40;;;;;;;;;;5010269;28;20522;-84
2021/09/19 04:39:30;;;;;;;2.53;2.20;;;;;;;;;;5008024;28;20965;-82
2021/09/19 04:41:57;;;;;;;2.70;2.50;;;;;;;;;;5011476;28;20450;-83
2021/09/19 04:44:24;;;;;;;4.47;2.33;;;;;;;;;;5011699;28;20855;-83
2021/09/19 04:46:51;;;;;;;2.53;2.33;;;;;;;;;;5012070;28;20954;-83
2021/09/19 04:49:18;;;;;;;2.07;1.87;;;;;;;;;;5011697;28;20841;-82
2021/09/19 04:51:47;;;;;;;2.20;2.00;;;;;;;;;;5014798;28;20931;-84
2021/09/19 04:54:14;;;;;;;2.13;2.00;;;;;;;;;;5014052;28;20443;-83
2021/09/19 04:56:41;;;;;;;4.30;2.00;;;;;;;;;;5013907;28;20490;-83
2021/09/19 04:59:08;;;;;;;2.30;2.10;;;;;;;;;;5009563;28;21081;-83
2021/09/19 05:01:35;;;;;;;2.43;2.23;;;;;;;;;;5007613;28;20439;-82
2021/09/19 05:04:02;;;;;;;2.20;1.90;;;;;;;;;;5011184;28;20493;-83
2021/09/19 05:06:29;;;;;;;2.37;2.17;;;;;;;;;;5011588;28;20535;-83
2021/09/19 05:08:58;;;;;;;2.73;2.33;;;;;;;;;;5012078;28;20448;-83
2021/09/19 05:11:25;;;;;;;2.70;2.50;;;;;;;;;;4994178;28;20880;-82
2021/09/19 05:13:52;;;;;;;3.67;2.50;;;;;;;;;;5013922;28;20469;-82
2021/09/19 05:16:19;;;;;;;2.97;2.67;;;;;;;;;;5013709;28;20443;-82
2021/09/19 05:18:47;;;;;;;2.50;2.30;;;;;;;;;;5013937;28;20978;-83
2021/09/19 05:21:14;;;;;;;3.00;2.70;;;;;;;;;;4991559;28;20439;-82
2021/09/19 05:23:41;;;;;;;3.83;2.70;;;;;;;;;;5007432;28;20979;-83
2021/09/19 05:26:09;;;;;;;3.40;3.10;;;;;;;;;;5014943;28;20450;-84
2021/09/19 05:28:37;;;;;;;4.37;3.07;;;;;;;;;;5015433;28;20443;-83
2021/09/19 05:31:04;;;;;;;2.50;2.30;;;;;;;;;;5015426;28;20972;-82
2021/09/19 05:33:34;;;;;;;5.00;2.73;;;;;;;;;;5015434;28;20453;-83
2021/09/19 05:36:01;;;;;;;2.80;2.50;;;;;;;;;;5017611;28;20447;-83
2021/09/19 05:38:28;;;;;;;2.87;2.60;;;;;;;;;;5017420;28;20441;-82
2021/09/19 05:40:55;;;;;;;3.90;2.83;;;;;;;;;;5017294;28;20798;-83
2021/09/19 05:43:24;;;;;;;3.30;3.00;;;;;;;;;;5012551;28;20490;-83
2021/09/19 05:45:51;;;;;;;2.80;2.60;;;;;;;;;;5011810;28;20439;-83
2021/09/19 05:48:19;;;;;;;3.50;3.07;;;;;;;;;;5014643;28;20450;-83
2021/09/19 05:50:47;;;;;;;2.63;2.43;;;;;;;;;;5014960;28;20822;-83
2021/09/19 05:53:14;;;;;;;3.50;3.10;;;;;;;;;;5015830;28;20438;-83
2021/09/19 05:55:41;;;;;;;3.80;2.97;;;;;;;;;;5014784;28;20486;-82
2021/09/19 05:58:19;;;;;;;2.80;2.50;;;;;;;;;;5017198;28;20765;-83
2021/09/19 06:00:47;;;;;;;3.23;2.60;;;;;;;;;;5017403;28;20459;-82
2021/09/19 06:03:14;;;;;;;3.40;3.10;;;;;;;;;;5017176;28;20796;-81
2021/09/19 06:05:41;;;;;;;3.43;2.43;;;;;;;;;;5014813;28;20428;-82
2021/09/19 06:08:09;;;;;;;4.30;2.47;;;;;;;;;;5011533;28;20436;-83
2021/09/19 06:10:36;;;;;;;3.47;2.43;;;;;;;;;;5013805;28;20466;-82
2021/09/19 06:13:03;;;;;;;3.10;2.80;;;;;;;;;;5014375;28;20449;-83
2021/09/19 06:15:31;;;;;;;3.73;3.07;;;;;;;;;;5014632;28;20448;-83
2021/09/19 06:17:59;;;;;;;3.70;2.90;;;;;;;;;;5014598;28;20458;-83
2021/09/19 06:20:26;;;;;;;3.43;3.00;;;;;;;;;;5012956;28;21098;-82
2021/09/19 06:22:53;;;;;;;3.57;3.27;;;;;;;;;;5010234;28;20434;-83
2021/09/19 06:25:21;;;;;;;4.40;3.10;;;;;;;;;;5013691;28;20492;-83
2021/09/19 06:27:48;;;;;;;3.10;2.80;;;;;;;;;;5013875;28;20446;-83
2021/09/19 06:30:15;;;;;;;3.43;2.73;;;;;;;;;;5000418;28;20459;-83
2021/09/19 06:32:43;;;;;;;3.30;3.00;;;;;;;;;;5009647;28;20804;-82
2021/09/19 06:35:12;;;;;;;2.93;2.50;;;;;;;;;;4997205;28;20471;-82
2021/09/19 06:37:39;;;;;;;2.90;2.70;;;;;;;;;;4979108;28;20440;-82
2021/09/19 06:40:08;;;;;;;3.37;3.07;;;;;;;;;;4996690;28;21012;-83
2021/09/19 06:42:35;;;;;;;3.53;3.07;;;;;;;;;;5005087;28;20435;-81
2021/09/19 06:45:02;;;;;;;3.20;2.90;;;;;;;;;;5009977;28;21780;-82
2021/09/19 06:47:30;;;;;;;3.10;2.77;;;;;;;;;;5013341;28;21185;-81
2021/09/19 06:49:57;;;;;;;3.10;2.80;;;;;;;;;;5007394;28;21216;-81
2021/09/19 06:52:25;;;;;;;2.73;2.53;;;;;;;;;;4994915;28;20771;-83
2021/09/19 06:54:53;;;;;;;3.30;3.00;;;;;;;;;;4994942;28;20448;-81
2021/09/19 06:57:20;;;;;;;3.70;3.40;;;;;;;;;;4996119;28;20470;-81
2021/09/19 06:59:47;;;;;;;3.17;2.97;;;;;;;;;;5000938;28;20773;-82
2021/09/19 07:02:14;;;;;;;2.73;2.53;;;;;;;;;;5015782;28;20438;-81
2021/09/19 07:04:41;;;;;;;3.27;2.97;;;;;;;;;;5011926;28;20477;-82
2021/09/19 07:07:08;;;;;;;3.50;2.73;;;;;;;;;;5009798;28;20525;-80
2021/09/19 07:09:37;;;;;;;3.27;3.03;;;;;;;;;;5013007;28;20462;-81
2021/09/19 07:12:04;;;;;;;3.70;3.40;;;;;;;;;;5003698;28;20425;-79
2021/09/19 07:14:32;;;;;;;2.90;2.60;;;;;;;;;;4993738;28;20462;-81
2021/09/19 07:16:59;;;;;;;2.47;2.27;;;;;;;;;;4993900;28;20475;-80
2021/09/19 07:19:26;;;;;;;2.53;2.33;;;;;;;;;;4995710;28;20521;-80
2021/09/19 07:21:53;;;;;;;3.63;2.77;;;;;;;;;;4996067;28;20447;-84
2021/09/19 07:24:20;;;;;;;2.50;2.30;;;;;;;;;;5014903;28;20463;-81
2021/09/19 07:26:49;;;;;;;2.57;2.37;;;;;;;;;;5012049;28;20435;-80
2021/09/19 07:29:16;;;;;;;3.17;2.87;;;;;;;;;;5009134;28;20433;-80
2021/09/19 07:31:44;;;;;;;3.00;2.80;;;;;;;;;;5012089;28;20425;-82
2021/09/19 07:34:11;;;;;;;3.80;2.40;;;;;;;;;;5013760;28;20438;-82
2021/09/19 07:36:38;;;;;;;2.90;2.57;;;;;;;;;;5001889;28;20447;-79
2021/09/19 07:39:06;;;;;;;2.87;2.67;;;;;;;;;;4993486;28;20474;-82
2021/09/19 07:41:34;;;;;;;3.80;2.70;;;;;;;;;;4997695;28;20472;-83
2021/09/19 07:44:03;;;;;;;2.53;2.33;;;;;;;;;;4977743;28;20479;-81
2021/09/19 07:46:30;;;;;;;2.50;2.30;;;;;;;;;;4995630;28;20440;-79
2021/09/19 07:48:57;;;;;;;3.83;2.57;;;;;;;;;;5000167;28;20439;-80
2021/09/19 07:51:25;;;;;;;2.63;2.40;;;;;;;;;;5005098;28;20539;-81
2021/09/19 07:53:52;;;;;;;4.57;2.50;;;;;;;;;;5000046;28;20766;-82
2021/09/19 07:56:21;;;;;;;2.43;2.23;;;;;;;;;;4992979;28;20443;-81
2021/09/19 07:58:48;;;;;;;2.60;2.40;;;;;;;;;;4993032;28;21004;-81
2021/09/19 08:01:17;;;;;;;4.13;2.50;;;;;;;;;;4993395;28;20419;-81
2021/09/19 08:03:44;;;;;;;2.43;2.23;;;;;;;;;;5012014;28;20451;-80
2021/09/19 08:06:11;;;;;;;2.47;2.27;;;;;;;;;;5014869;28;20880;-83
2021/09/19 08:08:47;;;;;;;2.97;2.77;;;;;;;;;;5106481;27;20536;-81
2021/09/19 08:11:14;;;;;;;3.10;2.70;;;;;;;;;;5085183;28;20438;-84
2021/09/19 08:13:41;;;;;;;2.40;2.20;;;;;;;;;;5088244;28;20446;-83
2021/09/19 08:16:09;;;;;;;2.77;2.47;;;;;;;;;;5088802;28;20459;-83
2021/09/19 08:18:36;;;;;;;3.00;2.70;;;;;;;;;;5089187;28;20450;-83
2021/09/19 08:21:04;;;;;;;2.70;2.50;;;;;;;;;;5088725;28;20464;-82
2021/09/19 08:23:31;;;;;;;3.73;2.37;;;;;;;;;;5090927;28;20422;-83
2021/09/19 08:25:59;;;;;;;3.03;2.20;;;;;;;;;;5090714;28;20940;-83
2021/09/19 08:28:27;;;;;;;2.60;2.40;;;;;;;;;;5090906;28;20487;-84
2021/09/19 08:30:54;;;;;;;2.87;2.60;;;;;;;;;;5086060;28;20618;-83
2021/09/19 08:33:26;;;;;;;2.43;2.23;;;;;;;;;;5085188;28;20439;-83
2021/09/19 08:35:53;;;;;;;2.07;1.97;;;;;;;;;;5087884;28;20979;-82
2021/09/19 08:38:21;;;;;;;4.40;2.13;;;;;;;;;;5088183;28;20451;-83
2021/09/19 08:40:48;;;;;;;2.60;2.40;;;;;;;;;;5088725;28;20455;-83
2021/09/19 08:43:17;;;;;;;2.70;2.50;;;;;;;;;;5088607;28;20475;-82
2021/09/19 08:45:47;;;;;;;3.03;2.27;;;;;;;;;;5090496;28;20439;-83
2021/09/19 08:48:14;;;;;;;2.63;2.43;;;;;;;;;;5089173;28;20491;-83
2021/09/19 08:50:43;;;;;;;2.63;2.43;;;;;;;;;;5090230;28;20472;-82
2021/09/19 08:53:10;;;;;;;2.17;2.00;;;;;;;;;;5084578;28;20439;-84
2021/09/19 08:55:40;;;;;;;3.63;2.30;;;;;;;;;;5084971;28;20867;-82
2021/09/19 08:58:08;;;;;;;2.27;2.17;;;;;;;;;;5088171;28;20958;-83
2021/09/19 09:00:40;;;;;;;2.23;2.00;;;;;;;;;;5088047;28;20467;-81
2021/09/19 09:03:11;;;;;;;3.00;2.03;;;;;;;;;;5088032;28;20440;-83
2021/09/19 09:05:38;;;;;;;2.70;2.50;;;;;;;;;;5088506;28;20447;-82
2021/09/19 09:08:06;;;;;;;2.97;2.43;;;;;;;;;;5089836;28;20506;-83
2021/09/19 09:10:41;;;;;;;2.73;2.53;;;;;;;;;;5088843;28;20866;-82
2021/09/19 09:13:10;;;;;;;3.10;2.30;;;;;;;;;;5089460;28;20439;-83
2021/09/19 09:15:39;;;;;;;3.10;2.90;;;;;;;;;;5082927;28;20440;-82
2021/09/19 09:18:08;;;;;;;2.73;2.27;;;;;;;;;;5083130;28;20440;-83
2021/09/19 09:20:50;;;;;;;2.63;2.43;;;;;;;;;;5074037;28;20460;-83
2021/09/19 09:23:25;;;;;;;3.17;2.20;;;;;;;;;;5073070;28;20444;-83
2021/09/19 09:26:07;;;;;;;2.60;2.40;;;;;;;;;;5072919;28;20447;-82
2021/09/19 09:28:42;;;;;;;2.40;2.20;;;;;;;;;;5073985;28;20494;-83
2021/09/19 09:31:09;;;;;;;2.60;2.40;;;;;;;;;;5076236;28;20464;-83
2021/09/19 09:33:38;;;;;;;2.70;2.50;;;;;;;;;;5076353;28;20436;-82
2021/09/19 09:36:09;;;;;;;2.90;2.60;;;;;;;;;;5073288;28;20443;-81
2021/09/19 09:38:36;;;;;;;2.60;2.40;;;;;;;;;;5069711;28;20432;-83
2021/09/19 09:41:05;;;;;;;2.70;2.50;;;;;;;;;;5072439;28;20521;-82
2021/09/19 09:43:32;;;;;;;2.67;2.47;;;;;;;;;;5072470;28;20471;-83
2021/09/19 09:46:09;;;;;;;2.70;2.50;;;;;;;;;;5073829;28;20441;-82
2021/09/19 09:48:39;;;;;;;2.80;2.60;;;;;;;;;;5073911;28;20487;-82
2021/09/19 09:51:21;;;;;;;2.80;2.20;;;;;;;;;;5075040;28;20500;-83
2021/09/19 09:53:54;;;;;;;2.30;2.10;;;;;;;;;;5075812;28;20486;-83
2021/09/19 09:56:21;;;;;;;3.10;2.90;;;;;;;;;;5075873;28;20448;-83
2021/09/19 09:58:49;;;;;;;2.33;2.13;;;;;;;;;;5071059;28;20951;-83
2021/09/19 10:01:16;;;;;;;2.90;2.47;;;;;;;;;;5069388;28;22050;-82
2021/09/19 10:03:45;;;;;;;2.43;2.23;;;;;;;;;;5072480;28;20447;-83
2021/09/19 10:06:12;;;;;;;2.40;2.20;;;;;;;;;;5073004;28;20444;-84
2021/09/19 10:08:40;;;;;;;3.53;2.63;;;;;;;;;;5073091;28;20507;-82
2021/09/19 10:11:08;;;;;;;3.20;2.90;;;;;;;;;;5072983;28;20464;-82
2021/09/19 10:13:40;;;;;;;2.07;1.90;;;;;;;;;;5072737;28;20449;-83
2021/09/19 10:16:08;;;;;;;2.30;2.10;;;;;;;;;;5068713;28;20456;-84
2021/09/19 10:18:35;;;;;;;2.60;2.40;;;;;;;;;;5071768;28;20926;-83
2021/09/19 10:21:05;;;;;;;2.07;1.90;;;;;;;;;;5073132;28;20465;-82
2021/09/19 10:23:35;;;;;;;2.43;2.23;;;;;;;;;;5073230;28;20451;-82
2021/09/19 10:26:07;;;;;;;2.40;2.20;;;;;;;;;;5077284;28;20451;-81
2021/09/19 10:28:36;;;;;;;2.73;2.30;;;;;;;;;;5074609;28;20828;-82
2021/09/19 10:31:19;;;;;;;2.37;2.17;;;;;;;;;;5073177;28;20547;-82
2021/09/19 10:33:49;;;;;;;2.37;2.17;;;;;;;;;;5076065;28;20450;-83
2021/09/19 10:36:24;;;;;;;2.23;2.03;;;;;;;;;;5071153;28;20781;-83
2021/09/19 10:38:52;;;;;;;2.60;2.40;;;;;;;;;;5067498;28;20454;-82
2021/09/19 10:41:20;;;;;;;1.73;1.63;;;;;;;;;;5071815;28;20451;-84
2021/09/19 10:43:50;;;;;;;2.07;1.87;;;;;;;;;;5072580;28;20444;-83
2021/09/19 10:46:32;;;;;;;2.50;2.30;;;;;;;;;;5071676;28;20436;-84
2021/09/19 10:49:10;;;;;;;2.10;1.90;;;;;;;;;;5072161;28;20480;-84
2021/09/19 10:52:02;;;;;;;2.37;2.13;;;;;;;;;;5074628;28;20774;-83
2021/09/19 10:54:44;;;;;;;3.20;1.90;;;;;;;;;;5073614;28;20445;-84
2021/09/19 10:57:15;;;;;;;2.57;2.37;;;;;;;;;;5072280;28;20810;-83
2021/09/19 10:59:56;;;;;;;2.70;2.50;;;;;;;;;;5067893;28;20459;-82
2021/09/19 11:02:31;;;;;;;2.40;2.20;;;;;;;;;;5069433;28;20440;-83
2021/09/19 11:05:13;;;;;;;2.40;2.20;;;;;;;;;;5071955;28;20944;-83
2021/09/19 11:07:43;;;;;;;2.77;2.30;;;;;;;;;;5071677;28;20476;-82
2021/09/19 11:10:10;;;;;;;2.33;2.13;;;;;;;;;;5072189;28;20496;-83
2021/09/19 11:12:46;;;;;;;2.77;2.43;;;;;;;;;;5073318;28;20452;-83
2021/09/19 11:15:16;;;;;;;3.40;2.47;;;;;;;;;;5074197;28;20479;-83
2021/09/19 11:17:44;;;;;;;2.90;2.10;;;;;;;;;;5074038;28;20483;-84
2021/09/19 11:20:31;;;;;;;2.40;2.20;;;;;;;;;;5064061;28;20470;-82
2021/09/19 11:23:18;;;;;;;2.50;2.30;;;;;;;;;;5063575;28;20502;-82
2021/09/19 11:25:45;;;;;;;3.80;2.30;;;;;;;;;;5071128;28;20811;-84
2021/09/19 11:28:12;;;;;;;4.33;3.93;;;;;;;;;;5071309;28;20480;-82
2021/09/19 11:30:40;;;;;;;3.20;2.50;;;;;;;;;;5071666;28;20464;-82
2021/09/19 11:33:11;;;;;;;3.17;2.87;;;;;;;;;;5071813;28;20463;-82
2021/09/19 11:35:39;;;;;;;3.00;2.70;;;;;;;;;;5073664;28;20435;-83
2021/09/19 11:38:07;;;;;;;2.60;2.40;;;;;;;;;;5072628;28;20451;-83
2021/09/19 11:40:34;;;;;;;2.50;2.30;;;;;;;;;;5073732;28;20817;-83
2021/09/19 11:43:08;;;;;;;2.00;1.90;;;;;;;;;;5068128;28;20428;-83
2021/09/19 11:45:35;;;;;;;3.10;2.80;;;;;;;;;;5066911;28;20436;-83
2021/09/19 11:48:03;;;;;;;2.67;2.47;;;;;;;;;;5071408;28;21000;-84
2021/09/19 11:50:31;;;;;;;2.50;2.30;;;;;;;;;;5071442;28;20854;-83
2021/09/19 11:53:02;;;;;;;2.53;2.33;;;;;;;;;;5071527;28;20545;-83
2021/09/19 11:55:30;;;;;;;2.37;2.17;;;;;;;;;;5071976;28;20444;-83
2021/09/19 11:57:58;;;;;;;3.03;2.50;;;;;;;;;;5073413;28;20454;-84
2021/09/19 12:00:25;;;;;;;2.40;2.20;;;;;;;;;;5073332;28;20464;-82
2021/09/19 12:02:53;;;;;;;2.67;2.47;;;;;;;;;;5073764;28;20438;-83
2021/09/19 12:05:24;;;;;;;2.87;2.67;;;;;;;;;;5067407;28;20439;-84
2021/09/19 12:07:51;;;;;;;2.73;2.30;;;;;;;;;;5068031;28;20480;-84
2021/09/19 12:10:23;;;;;;;3.83;2.40;;;;;;;;;;5071164;28;20461;-81
2021/09/19 12:12:52;;;;;;;2.93;2.63;;;;;;;;;;5071030;28;20448;-80
2021/09/19 12:15:24;;;;;;;2.97;2.77;;;;;;;;;;5071438;28;20444;-83
2021/09/19 12:18:03;;;;;;;2.70;2.50;;;;;;;;;;5072173;28;20530;-82
2021/09/19 12:20:31;;;;;;;4.30;2.60;;;;;;;;;;5073395;28;20463;-82
2021/09/19 12:23:13;;;;;;;2.20;2.00;;;;;;;;;;5075240;28;20440;-81
2021/09/19 12:25:45;;;;;;;2.40;2.20;;;;;;;;;;5074284;28;20435;-81
2021/09/19 12:28:17;;;;;;;2.50;2.30;;;;;;;;;;5067131;28;20472;-82
2021/09/19 12:30:44;;;;;;;2.60;2.40;;;;;;;;;;5069444;28;20452;-81
2021/09/19 12:33:11;;;;;;;2.60;2.40;;;;;;;;;;5072944;28;20804;-81
2021/09/19 12:35:39;;;;;;;3.13;2.83;;;;;;;;;;5070944;28;20447;-82
2021/09/19 12:38:10;;;;;;;2.80;2.60;;;;;;;;;;5071730;28;20466;-81
2021/09/19 12:40:37;;;;;;;2.67;2.47;;;;;;;;;;5072089;28;20459;-81
2021/09/19 12:43:05;;;;;;;2.70;2.50;;;;;;;;;;5073197;28;20440;-84
2021/09/19 12:45:34;;;;;;;2.70;2.50;;;;;;;;;;5073154;28;20527;-83
2021/09/19 12:48:01;;;;;;;2.50;2.30;;;;;;;;;;5070328;28;20436;-83
2021/09/19 12:50:30;;;;;;;2.90;2.57;;;;;;;;;;5066317;28;21202;-83
2021/09/19 12:52:58;;;;;;;4.27;2.90;;;;;;;;;;5069709;28;20449;-83
2021/09/19 12:55:26;;;;;;;5.07;3.30;;;;;;;;;;5074292;28;20443;-83
2021/09/19 12:57:54;;;;;;;3.60;3.30;;;;;;;;;;5074605;28;20428;-83
2021/09/19 13:00:23;;;;;;;6.10;4.43;;;;;;;;;;5074650;28;20812;-83
2021/09/19 13:02:59;;;;;;;4.07;3.40;;;;;;;;;;5075571;28;20569;-84
2021/09/19 13:05:27;;;;;;;4.50;3.50;;;;;;;;;;5076727;28;20440;-83
2021/09/19 13:07:54;;;;;;;3.87;3.47;;;;;;;;;;5076302;28;20460;-82
2021/09/19 13:10:21;;;;;;;3.50;3.20;;;;;;;;;;5072919;28;20453;-84
2021/09/19 13:12:48;;;;;;;3.10;2.80;;;;;;;;;;5070233;28;20432;-82
2021/09/19 13:15:16;;;;;;;3.10;2.80;;;;;;;;;;5073170;28;20435;-82
2021/09/19 13:17:43;;;;;;;3.30;3.00;;;;;;;;;;5074076;28;20430;-83
2021/09/19 13:20:13;;;;;;;2.60;2.40;;;;;;;;;;5072952;28;20832;-83
2021/09/19 13:22:40;;;;;;;2.60;2.40;;;;;;;;;;5074415;28;20455;-83
2021/09/19 13:25:10;;;;;;;2.60;2.40;;;;;;;;;;5075643;28;20440;-82
2021/09/19 13:27:37;;;;;;;3.33;3.03;;;;;;;;;;5076275;28;20447;-83
2021/09/19 13:30:05;;;;;;;3.00;2.70;;;;;;;;;;5075712;28;20487;-82
2021/09/19 13:32:33;;;;;;;3.13;2.83;;;;;;;;;;5072697;28;20440;-82
2021/09/19 13:35:00;;;;;;;6.43;3.43;;;;;;;;;;5070018;28;20990;-83
2021/09/19 13:37:29;;;;;;;2.60;2.40;;;;;;;;;;5073291;28;20447;-83
2021/09/19 13:39:56;;;;;;;2.70;2.50;;;;;;;;;;5073479;28;20470;-83
2021/09/19 13:42:23;;;;;;;3.03;2.73;;;;;;;;;;5073753;28;20533;-83
2021/09/19 13:44:51;;;;;;;2.83;2.63;;;;;;;;;;5073617;28;20956;-82
2021/09/19 13:47:18;;;;;;;3.07;2.47;;;;;;;;;;5075448;28;20527;-83
2021/09/19 13:49:45;;;;;;;3.03;2.73;;;;;;;;;;5075693;28;20495;-83
2021/09/19 13:52:13;;;;;;;3.00;2.70;;;;;;;;;;5075641;28;20450;-83
2021/09/19 13:54:41;;;;;;;3.23;2.93;;;;;;;;;;5071722;28;20441;-83
2021/09/19 13:57:09;;;;;;;2.60;2.40;;;;;;;;;;5068233;28;20927;-83
2021/09/19 13:59:36;;;;;;;4.90;2.93;;;;;;;;;;5072747;28;20519;-83
2021/09/19 14:02:03;;;;;;;4.00;3.20;;;;;;;;;;5073189;28;20446;-82
2021/09/19 14:04:30;;;;;;;3.23;2.93;;;;;;;;;;5073495;28;20928;-82
2021/09/19 14:06:58;;;;;;;3.07;2.47;;;;;;;;;;5073084;28;20464;-83
2021/09/19 14:09:25;;;;;;;2.70;2.50;;;;;;;;;;5073944;28;20484;-83
2021/09/19 14:11:53;;;;;;;3.00;2.70;;;;;;;;;;5075384;28;20820;-83
2021/09/19 14:14:20;;;;;;;2.93;2.73;;;;;;;;;;5075432;28;20432;-83
2021/09/19 14:16:48;;;;;;;3.83;3.53;;;;;;;;;;5071172;28;20444;-83
2021/09/19 14:19:16;;;;;;;3.17;2.87;;;;;;;;;;5068946;28;20434;-83
2021/09/19 14:21:43;;;;;;;3.87;3.43;;;;;;;;;;5052448;28;20812;-82
2021/09/19 14:24:10;;;;;;;3.10;2.90;;;;;;;;;;5052570;28;20946;-82
2021/09/19 14:26:37;;;;;;;3.40;3.10;;;;;;;;;;5053185;28;20443;-83
2021/09/19 14:29:06;;;;;;;3.10;2.80;;;;;;;;;;5053524;28;20542;-82
2021/09/19 14:31:33;;;;;;;3.50;3.00;;;;;;;;;;5075104;28;20953;-83
2021/09/19 14:34:00;;;;;;;3.33;3.03;;;;;;;;;;5075024;28;20436;-83
2021/09/19 14:36:27;;;;;;;3.30;3.00;;;;;;;;;;5074891;28;20440;-83
2021/09/19 14:38:54;;;;;;;2.63;2.43;;;;;;;;;;5070628;28;20443;-83
2021/09/19 14:41:23;;;;;;;2.93;2.73;;;;;;;;;;5068563;28;20460;-83
2021/09/19 14:43:50;;;;;;;2.87;2.67;;;;;;;;;;5071943;28;20444;-83
2021/09/19 14:46:20;;;;;;;2.77;2.57;;;;;;;;;;5072185;28;20436;-83
2021/09/19 14:48:47;;;;;;;3.33;3.03;;;;;;;;;;5072468;28;20503;-82
2021/09/19 14:51:14;;;;;;;2.80;2.33;;;;;;;;;;5072099;28;20786;-83